sensor_id;sensor_type;location;lat;lon;timestamp;P1;durP1;ratioP1;P2;durP2;ratioP2
10041;SDS011;5061;49.068;12.058;2023-03-23T00:00:40;3.10;;;2.40;;
10041;SDS011;5061;49.068;12.058;2023-03-23T00:04:00;10.20;;;2.80;;
10041;SDS011;5061;49.068;12.058;2023-03-23T00:07:22;3.90;;;3.00;;
10041;SDS011;5061;49.068;12.058;2023-03-23T00:10:48;3.60;;;2.90;;
10041;SDS011;5061;49.068;12.058;2023-03-23T00:14:18;3.40;;;2.63;;
10041;SDS011;5061;49.068;12.058;2023-03-23T00:17:42;3.70;;;2.67;;
10041;SDS011;5061;49.068;12.058;2023-03-23T00:21:03;6.37;;;2.80;;
10041;SDS011;5061;49.068;12.058;2023-03-23T00:24:24;4.60;;;2.60;;
10041;SDS011;5061;49.068;12.058;2023-03-23T00:27:44;5.10;;;2.90;;
10041;SDS011;5061;49.068;12.058;2023-03-23T00:31:06;2.90;;;2.43;;
10041;SDS011;5061;49.068;12.058;2023-03-23T00:34:28;4.80;;;2.77;;
10041;SDS011;5061;49.068;12.058;2023-03-23T00:37:53;4.13;;;2.73;;
10041;SDS011;5061;49.068;12.058;2023-03-23T00:41:15;3.47;;;2.40;;
10041;SDS011;5061;49.068;12.058;2023-03-23T00:44:35;7.10;;;3.40;;
10041;SDS011;5061;49.068;12.058;2023-03-23T00:47:56;5.70;;;2.90;;
10041;SDS011;5061;49.068;12.058;2023-03-23T00:51:22;2.90;;;2.30;;
10041;SDS011;5061;49.068;12.058;2023-03-23T00:54:43;2.50;;;2.30;;
10041;SDS011;5061;49.068;12.058;2023-03-23T00:58:04;2.33;;;2.13;;
10041;SDS011;5061;49.068;12.058;2023-03-23T01:01:25;4.50;;;2.33;;
10041;SDS011;5061;49.068;12.058;2023-03-23T01:04:45;2.60;;;2.10;;
10041;SDS011;5061;49.068;12.058;2023-03-23T01:08:06;4.43;;;3.13;;
10041;SDS011;5061;49.068;12.058;2023-03-23T01:11:27;6.20;;;2.40;;
10041;SDS011;5061;49.068;12.058;2023-03-23T01:14:48;3.10;;;2.20;;
10041;SDS011;5061;49.068;12.058;2023-03-23T01:18:09;4.93;;;2.57;;
10041;SDS011;5061;49.068;12.058;2023-03-23T01:21:30;3.33;;;2.40;;
10041;SDS011;5061;49.068;12.058;2023-03-23T01:24:51;3.23;;;2.50;;
10041;SDS011;5061;49.068;12.058;2023-03-23T01:28:11;3.00;;;2.37;;
10041;SDS011;5061;49.068;12.058;2023-03-23T01:31:32;3.93;;;2.47;;
10041;SDS011;5061;49.068;12.058;2023-03-23T01:34:56;3.23;;;2.73;;
10041;SDS011;5061;49.068;12.058;2023-03-23T01:38:16;5.50;;;2.73;;
10041;SDS011;5061;49.068;12.058;2023-03-23T01:41:37;4.53;;;2.50;;
10041;SDS011;5061;49.068;12.058;2023-03-23T01:48:52;2.80;;;2.27;;
10041;SDS011;5061;49.068;12.058;2023-03-23T01:52:14;2.67;;;2.40;;
10041;SDS011;5061;49.068;12.058;2023-03-23T01:55:42;3.70;;;2.50;;
10041;SDS011;5061;49.068;12.058;2023-03-23T01:59:08;4.20;;;2.57;;
10041;SDS011;5061;49.068;12.058;2023-03-23T02:02:30;3.80;;;2.53;;
10041;SDS011;5061;49.068;12.058;2023-03-23T02:05:52;2.77;;;2.37;;
10041;SDS011;5061;49.068;12.058;2023-03-23T02:09:13;3.23;;;2.73;;
10041;SDS011;5061;49.068;12.058;2023-03-23T02:12:37;3.90;;;2.60;;
10041;SDS011;5061;49.068;12.058;2023-03-23T02:16:07;2.43;;;2.20;;
10041;SDS011;5061;49.068;12.058;2023-03-23T02:27:11;3.70;;;2.37;;
10041;SDS011;5061;49.068;12.058;2023-03-23T02:34:05;3.30;;;2.43;;
10041;SDS011;5061;49.068;12.058;2023-03-23T02:37:36;3.80;;;2.80;;
10041;SDS011;5061;49.068;12.058;2023-03-23T02:41:04;3.17;;;2.47;;
10041;SDS011;5061;49.068;12.058;2023-03-23T02:44:25;2.40;;;1.90;;
10041;SDS011;5061;49.068;12.058;2023-03-23T02:47:50;2.37;;;1.83;;
10041;SDS011;5061;49.068;12.058;2023-03-23T02:51:13;2.93;;;2.40;;
10041;SDS011;5061;49.068;12.058;2023-03-23T02:54:38;2.43;;;1.90;;
10041;SDS011;5061;49.068;12.058;2023-03-23T02:58:00;4.13;;;2.50;;
10041;SDS011;5061;49.068;12.058;2023-03-23T03:04:52;3.50;;;2.47;;
10041;SDS011;5061;49.068;12.058;2023-03-23T03:08:27;3.27;;;2.60;;
10041;SDS011;5061;49.068;12.058;2023-03-23T03:11:56;3.43;;;2.33;;
10041;SDS011;5061;49.068;12.058;2023-03-23T03:15:29;4.00;;;2.63;;
10041;SDS011;5061;49.068;12.058;2023-03-23T03:22:45;5.60;;;3.00;;
10041;SDS011;5061;49.068;12.058;2023-03-23T03:26:08;3.70;;;3.10;;
10041;SDS011;5061;49.068;12.058;2023-03-23T03:29:36;4.80;;;3.50;;
10041;SDS011;5061;49.068;12.058;2023-03-23T03:33:01;4.93;;;3.10;;
10041;SDS011;5061;49.068;12.058;2023-03-23T03:36:24;3.93;;;3.00;;
10041;SDS011;5061;49.068;12.058;2023-03-23T03:39:54;7.00;;;3.40;;
10041;SDS011;5061;49.068;12.058;2023-03-23T03:43:15;4.83;;;3.00;;
10041;SDS011;5061;49.068;12.058;2023-03-23T03:46:36;4.03;;;3.10;;
10041;SDS011;5061;49.068;12.058;2023-03-23T03:49:57;5.43;;;3.13;;
10041;SDS011;5061;49.068;12.058;2023-03-23T03:53:18;7.00;;;3.10;;
10041;SDS011;5061;49.068;12.058;2023-03-23T03:56:39;4.20;;;3.50;;
10041;SDS011;5061;49.068;12.058;2023-03-23T04:00:03;4.57;;;3.40;;
10041;SDS011;5061;49.068;12.058;2023-03-23T04:03:37;7.00;;;3.97;;
10041;SDS011;5061;49.068;12.058;2023-03-23T04:06:58;4.93;;;4.13;;
10041;SDS011;5061;49.068;12.058;2023-03-23T04:10:19;3.93;;;3.37;;
10041;SDS011;5061;49.068;12.058;2023-03-23T04:13:41;4.83;;;3.50;;
10041;SDS011;5061;49.068;12.058;2023-03-23T04:17:02;5.00;;;3.90;;
10041;SDS011;5061;49.068;12.058;2023-03-23T04:20:23;6.20;;;4.27;;
10041;SDS011;5061;49.068;12.058;2023-03-23T04:23:45;4.37;;;3.40;;
10041;SDS011;5061;49.068;12.058;2023-03-23T04:27:05;4.50;;;3.57;;
10041;SDS011;5061;49.068;12.058;2023-03-23T04:30:26;6.17;;;4.20;;
10041;SDS011;5061;49.068;12.058;2023-03-23T04:33:49;5.50;;;3.80;;
10041;SDS011;5061;49.068;12.058;2023-03-23T04:37:12;6.70;;;4.57;;
10041;SDS011;5061;49.068;12.058;2023-03-23T04:40:37;4.77;;;3.83;;
10041;SDS011;5061;49.068;12.058;2023-03-23T04:43:58;4.60;;;3.63;;
10041;SDS011;5061;49.068;12.058;2023-03-23T04:47:22;4.80;;;3.43;;
10041;SDS011;5061;49.068;12.058;2023-03-23T04:50:49;6.90;;;4.13;;
10041;SDS011;5061;49.068;12.058;2023-03-23T04:54:10;5.53;;;3.73;;
10041;SDS011;5061;49.068;12.058;2023-03-23T04:57:31;5.90;;;3.50;;
10041;SDS011;5061;49.068;12.058;2023-03-23T05:00:52;8.43;;;4.00;;
10041;SDS011;5061;49.068;12.058;2023-03-23T05:04:13;7.77;;;3.60;;
10041;SDS011;5061;49.068;12.058;2023-03-23T05:07:36;6.90;;;4.63;;
10041;SDS011;5061;49.068;12.058;2023-03-23T05:10:58;6.50;;;5.07;;
10041;SDS011;5061;49.068;12.058;2023-03-23T05:14:20;7.50;;;4.80;;
10041;SDS011;5061;49.068;12.058;2023-03-23T05:17:41;6.20;;;4.20;;
10041;SDS011;5061;49.068;12.058;2023-03-23T05:21:03;6.93;;;4.80;;
10041;SDS011;5061;49.068;12.058;2023-03-23T05:24:24;9.50;;;5.00;;
10041;SDS011;5061;49.068;12.058;2023-03-23T05:27:45;6.80;;;4.90;;
10041;SDS011;5061;49.068;12.058;2023-03-23T05:31:12;7.57;;;5.00;;
10041;SDS011;5061;49.068;12.058;2023-03-23T05:34:33;6.37;;;4.67;;
10041;SDS011;5061;49.068;12.058;2023-03-23T05:37:55;7.57;;;4.47;;
10041;SDS011;5061;49.068;12.058;2023-03-23T05:41:17;6.97;;;4.40;;
10041;SDS011;5061;49.068;12.058;2023-03-23T05:44:37;5.80;;;4.17;;
10041;SDS011;5061;49.068;12.058;2023-03-23T05:47:58;5.27;;;4.17;;
10041;SDS011;5061;49.068;12.058;2023-03-23T05:51:18;6.00;;;4.10;;
10041;SDS011;5061;49.068;12.058;2023-03-23T05:54:39;4.23;;;3.43;;
10041;SDS011;5061;49.068;12.058;2023-03-23T05:58:01;4.70;;;3.90;;
10041;SDS011;5061;49.068;12.058;2023-03-23T06:01:22;8.33;;;4.60;;
10041;SDS011;5061;49.068;12.058;2023-03-23T06:04:43;5.93;;;4.60;;
10041;SDS011;5061;49.068;12.058;2023-03-23T06:08:04;6.87;;;4.70;;
10041;SDS011;5061;49.068;12.058;2023-03-23T06:11:25;8.47;;;5.30;;
10041;SDS011;5061;49.068;12.058;2023-03-23T06:14:46;5.53;;;4.40;;
10041;SDS011;5061;49.068;12.058;2023-03-23T06:18:08;6.33;;;4.40;;
10041;SDS011;5061;49.068;12.058;2023-03-23T06:21:28;4.93;;;4.40;;
10041;SDS011;5061;49.068;12.058;2023-03-23T06:24:50;6.90;;;4.97;;
10041;SDS011;5061;49.068;12.058;2023-03-23T06:28:11;7.90;;;5.40;;
10041;SDS011;5061;49.068;12.058;2023-03-23T06:31:31;5.53;;;4.53;;
10041;SDS011;5061;49.068;12.058;2023-03-23T06:34:54;5.80;;;5.03;;
10041;SDS011;5061;49.068;12.058;2023-03-23T06:38:14;7.67;;;4.50;;
10041;SDS011;5061;49.068;12.058;2023-03-23T06:41:35;6.13;;;4.87;;
10041;SDS011;5061;49.068;12.058;2023-03-23T06:44:56;7.67;;;5.17;;
10041;SDS011;5061;49.068;12.058;2023-03-23T06:48:17;7.30;;;4.93;;
10041;SDS011;5061;49.068;12.058;2023-03-23T06:51:38;9.20;;;5.83;;
10041;SDS011;5061;49.068;12.058;2023-03-23T06:54:59;6.70;;;4.80;;
10041;SDS011;5061;49.068;12.058;2023-03-23T06:58:19;5.83;;;4.70;;
10041;SDS011;5061;49.068;12.058;2023-03-23T07:01:41;7.30;;;5.07;;
10041;SDS011;5061;49.068;12.058;2023-03-23T07:05:01;9.63;;;5.13;;
10041;SDS011;5061;49.068;12.058;2023-03-23T07:08:23;6.07;;;4.90;;
10041;SDS011;5061;49.068;12.058;2023-03-23T07:11:44;9.43;;;5.40;;
10041;SDS011;5061;49.068;12.058;2023-03-23T07:15:07;5.80;;;4.90;;
10041;SDS011;5061;49.068;12.058;2023-03-23T07:18:33;5.87;;;4.00;;
10041;SDS011;5061;49.068;12.058;2023-03-23T07:21:54;6.23;;;4.50;;
10041;SDS011;5061;49.068;12.058;2023-03-23T07:25:17;6.80;;;4.13;;
10041;SDS011;5061;49.068;12.058;2023-03-23T07:28:38;7.67;;;4.90;;
10041;SDS011;5061;49.068;12.058;2023-03-23T07:32:00;6.53;;;4.20;;
10041;SDS011;5061;49.068;12.058;2023-03-23T07:35:21;5.03;;;3.80;;
10041;SDS011;5061;49.068;12.058;2023-03-23T07:38:42;4.87;;;3.63;;
10041;SDS011;5061;49.068;12.058;2023-03-23T07:42:03;5.73;;;4.20;;
10041;SDS011;5061;49.068;12.058;2023-03-23T07:45:24;5.77;;;5.17;;
10041;SDS011;5061;49.068;12.058;2023-03-23T07:48:45;6.87;;;5.00;;
10041;SDS011;5061;49.068;12.058;2023-03-23T07:52:06;11.50;;;5.90;;
10041;SDS011;5061;49.068;12.058;2023-03-23T07:55:26;6.23;;;4.80;;
10041;SDS011;5061;49.068;12.058;2023-03-23T07:58:48;7.13;;;5.00;;
10041;SDS011;5061;49.068;12.058;2023-03-23T08:02:09;4.93;;;4.43;;
10041;SDS011;5061;49.068;12.058;2023-03-23T08:05:30;7.07;;;5.03;;
10041;SDS011;5061;49.068;12.058;2023-03-23T08:08:52;6.20;;;4.37;;
10041;SDS011;5061;49.068;12.058;2023-03-23T08:12:13;6.20;;;5.33;;
10041;SDS011;5061;49.068;12.058;2023-03-23T08:15:34;6.37;;;4.40;;
10041;SDS011;5061;49.068;12.058;2023-03-23T08:18:57;6.73;;;5.13;;
10041;SDS011;5061;49.068;12.058;2023-03-23T08:22:18;6.07;;;4.60;;
10041;SDS011;5061;49.068;12.058;2023-03-23T08:25:39;5.63;;;4.20;;
10041;SDS011;5061;49.068;12.058;2023-03-23T08:28:59;6.97;;;4.37;;
10041;SDS011;5061;49.068;12.058;2023-03-23T08:32:20;6.00;;;4.00;;
10041;SDS011;5061;49.068;12.058;2023-03-23T08:35:43;5.47;;;4.30;;
10041;SDS011;5061;49.068;12.058;2023-03-23T08:39:04;5.40;;;3.63;;
10041;SDS011;5061;49.068;12.058;2023-03-23T08:42:25;7.30;;;4.20;;
10041;SDS011;5061;49.068;12.058;2023-03-23T08:45:46;6.00;;;4.10;;
10041;SDS011;5061;49.068;12.058;2023-03-23T08:49:07;4.47;;;4.03;;
10041;SDS011;5061;49.068;12.058;2023-03-23T08:52:28;6.13;;;4.07;;
10041;SDS011;5061;49.068;12.058;2023-03-23T08:55:49;6.47;;;3.83;;
10041;SDS011;5061;49.068;12.058;2023-03-23T08:59:10;5.50;;;4.13;;
10041;SDS011;5061;49.068;12.058;2023-03-23T09:02:31;8.87;;;5.20;;
10041;SDS011;5061;49.068;12.058;2023-03-23T09:05:57;7.70;;;5.30;;
10041;SDS011;5061;49.068;12.058;2023-03-23T09:09:20;8.73;;;5.20;;
10041;SDS011;5061;49.068;12.058;2023-03-23T09:12:41;5.20;;;4.20;;
10041;SDS011;5061;49.068;12.058;2023-03-23T09:16:03;5.87;;;4.33;;
10041;SDS011;5061;49.068;12.058;2023-03-23T09:19:24;3.90;;;3.50;;
10041;SDS011;5061;49.068;12.058;2023-03-23T09:22:46;5.50;;;3.90;;
10041;SDS011;5061;49.068;12.058;2023-03-23T09:26:08;5.27;;;4.53;;
10041;SDS011;5061;49.068;12.058;2023-03-23T09:29:29;6.27;;;4.50;;
10041;SDS011;5061;49.068;12.058;2023-03-23T09:32:50;6.07;;;4.50;;
10041;SDS011;5061;49.068;12.058;2023-03-23T09:36:11;6.70;;;4.10;;
10041;SDS011;5061;49.068;12.058;2023-03-23T09:39:33;6.77;;;4.63;;
10041;SDS011;5061;49.068;12.058;2023-03-23T09:43:04;4.57;;;4.00;;
10041;SDS011;5061;49.068;12.058;2023-03-23T09:50:12;4.50;;;3.93;;
10041;SDS011;5061;49.068;12.058;2023-03-23T09:53:41;4.73;;;3.50;;
10041;SDS011;5061;49.068;12.058;2023-03-23T09:57:05;4.20;;;3.10;;
10041;SDS011;5061;49.068;12.058;2023-03-23T10:00:38;5.43;;;3.83;;
10041;SDS011;5061;49.068;12.058;2023-03-23T10:04:05;4.47;;;3.97;;
10041;SDS011;5061;49.068;12.058;2023-03-23T10:07:33;3.57;;;3.00;;
10041;SDS011;5061;49.068;12.058;2023-03-23T10:11:12;4.20;;;3.70;;
10041;SDS011;5061;49.068;12.058;2023-03-23T10:14:57;6.90;;;3.63;;
10041;SDS011;5061;49.068;12.058;2023-03-23T10:18:36;4.20;;;3.33;;
10041;SDS011;5061;49.068;12.058;2023-03-23T10:21:59;3.60;;;2.73;;
10041;SDS011;5061;49.068;12.058;2023-03-23T10:25:30;4.13;;;3.27;;
10041;SDS011;5061;49.068;12.058;2023-03-23T10:28:56;4.17;;;3.77;;
10041;SDS011;5061;49.068;12.058;2023-03-23T10:32:23;3.63;;;3.00;;
10041;SDS011;5061;49.068;12.058;2023-03-23T10:36:06;5.07;;;3.53;;
10041;SDS011;5061;49.068;12.058;2023-03-23T10:43:18;7.53;;;4.30;;
10041;SDS011;5061;49.068;12.058;2023-03-23T10:46:43;4.20;;;3.47;;
10041;SDS011;5061;49.068;12.058;2023-03-23T10:50:17;4.53;;;3.10;;
10041;SDS011;5061;49.068;12.058;2023-03-23T10:53:49;4.93;;;3.47;;
10041;SDS011;5061;49.068;12.058;2023-03-23T10:57:17;3.93;;;3.53;;
10041;SDS011;5061;49.068;12.058;2023-03-23T11:00:45;4.97;;;4.17;;
10041;SDS011;5061;49.068;12.058;2023-03-23T11:04:11;4.03;;;3.63;;
10041;SDS011;5061;49.068;12.058;2023-03-23T11:07:34;5.60;;;4.10;;
10041;SDS011;5061;49.068;12.058;2023-03-23T11:11:07;4.07;;;3.33;;
10041;SDS011;5061;49.068;12.058;2023-03-23T11:14:35;3.80;;;3.40;;
10041;SDS011;5061;49.068;12.058;2023-03-23T11:18:00;4.33;;;3.90;;
10041;SDS011;5061;49.068;12.058;2023-03-23T11:21:23;4.63;;;2.47;;
10041;SDS011;5061;49.068;12.058;2023-03-23T11:24:47;3.07;;;2.23;;
10041;SDS011;5061;49.068;12.058;2023-03-23T11:28:12;3.20;;;2.10;;
10041;SDS011;5061;49.068;12.058;2023-03-23T11:31:39;2.10;;;1.90;;
10041;SDS011;5061;49.068;12.058;2023-03-23T11:35:00;5.37;;;2.00;;
10041;SDS011;5061;49.068;12.058;2023-03-23T11:38:28;2.73;;;1.80;;
10041;SDS011;5061;49.068;12.058;2023-03-23T11:41:48;3.37;;;1.90;;
10041;SDS011;5061;49.068;12.058;2023-03-23T11:45:14;2.07;;;1.80;;
10041;SDS011;5061;49.068;12.058;2023-03-23T11:48:57;1.80;;;1.67;;
10041;SDS011;5061;49.068;12.058;2023-03-23T11:56:11;2.40;;;1.90;;
10041;SDS011;5061;49.068;12.058;2023-03-23T11:59:39;2.30;;;1.70;;
10041;SDS011;5061;49.068;12.058;2023-03-23T12:28:19;2.73;;;1.77;;
10041;SDS011;5061;49.068;12.058;2023-03-23T12:31:47;2.70;;;2.13;;
10041;SDS011;5061;49.068;12.058;2023-03-23T12:49:54;4.63;;;2.03;;
10041;SDS011;5061;49.068;12.058;2023-03-23T12:53:22;4.33;;;2.00;;
10041;SDS011;5061;49.068;12.058;2023-03-23T12:56:55;1.73;;;1.63;;
10041;SDS011;5061;49.068;12.058;2023-03-23T13:00:28;3.20;;;1.83;;
10041;SDS011;5061;49.068;12.058;2023-03-23T13:07:32;1.70;;;1.60;;
10041;SDS011;5061;49.068;12.058;2023-03-23T13:10:58;2.63;;;1.73;;
10041;SDS011;5061;49.068;12.058;2023-03-23T13:14:32;2.07;;;1.63;;
10041;SDS011;5061;49.068;12.058;2023-03-23T13:21:32;2.17;;;1.73;;
10041;SDS011;5061;49.068;12.058;2023-03-23T13:25:17;8.70;;;3.30;;
10041;SDS011;5061;49.068;12.058;2023-03-23T13:28:48;2.03;;;1.77;;
10041;SDS011;5061;49.068;12.058;2023-03-23T13:32:15;2.13;;;1.60;;
10041;SDS011;5061;49.068;12.058;2023-03-23T13:35:38;2.40;;;1.63;;
10041;SDS011;5061;49.068;12.058;2023-03-23T13:39:02;2.03;;;1.43;;
10041;SDS011;5061;49.068;12.058;2023-03-23T13:42:28;1.50;;;1.37;;
10041;SDS011;5061;49.068;12.058;2023-03-23T13:45:54;5.67;;;1.63;;
10041;SDS011;5061;49.068;12.058;2023-03-23T13:49:19;2.63;;;1.40;;
10041;SDS011;5061;49.068;12.058;2023-03-23T13:59:56;1.67;;;1.37;;
10041;SDS011;5061;49.068;12.058;2023-03-23T14:07:08;1.30;;;1.20;;
10041;SDS011;5061;49.068;12.058;2023-03-23T14:10:32;2.40;;;1.50;;
10041;SDS011;5061;49.068;12.058;2023-03-23T14:14:06;1.57;;;1.40;;
10041;SDS011;5061;49.068;12.058;2023-03-23T14:17:41;1.73;;;1.30;;
10041;SDS011;5061;49.068;12.058;2023-03-23T14:21:04;1.97;;;1.50;;
10041;SDS011;5061;49.068;12.058;2023-03-23T14:24:27;1.73;;;1.47;;
10041;SDS011;5061;49.068;12.058;2023-03-23T14:27:50;1.83;;;1.57;;
10041;SDS011;5061;49.068;12.058;2023-03-23T14:31:17;3.00;;;1.70;;
10041;SDS011;5061;49.068;12.058;2023-03-23T14:34:46;1.50;;;1.40;;
10041;SDS011;5061;49.068;12.058;2023-03-23T14:38:16;4.27;;;1.70;;
10041;SDS011;5061;49.068;12.058;2023-03-23T14:41:40;2.27;;;1.13;;
10041;SDS011;5061;49.068;12.058;2023-03-23T14:45:04;2.00;;;1.63;;
10041;SDS011;5061;49.068;12.058;2023-03-23T14:48:25;1.90;;;1.50;;
10041;SDS011;5061;49.068;12.058;2023-03-23T14:51:47;2.30;;;1.53;;
10041;SDS011;5061;49.068;12.058;2023-03-23T14:55:19;3.50;;;1.40;;
10041;SDS011;5061;49.068;12.058;2023-03-23T14:58:45;1.47;;;1.37;;
10041;SDS011;5061;49.068;12.058;2023-03-23T15:02:08;1.30;;;1.10;;
10041;SDS011;5061;49.068;12.058;2023-03-23T15:05:39;3.40;;;1.57;;
10041;SDS011;5061;49.068;12.058;2023-03-23T15:09:07;5.03;;;1.50;;
10041;SDS011;5061;49.068;12.058;2023-03-23T15:12:32;2.43;;;1.67;;
10041;SDS011;5061;49.068;12.058;2023-03-23T15:16:00;1.67;;;1.30;;
10041;SDS011;5061;49.068;12.058;2023-03-23T15:19:27;1.63;;;1.40;;
10041;SDS011;5061;49.068;12.058;2023-03-23T15:22:52;1.80;;;1.40;;
10041;SDS011;5061;49.068;12.058;2023-03-23T15:26:24;1.20;;;1.10;;
10041;SDS011;5061;49.068;12.058;2023-03-23T15:29:51;1.87;;;1.40;;
10041;SDS011;5061;49.068;12.058;2023-03-23T15:33:17;2.17;;;1.20;;
10041;SDS011;5061;49.068;12.058;2023-03-23T15:36:40;1.87;;;1.40;;
10041;SDS011;5061;49.068;12.058;2023-03-23T15:40:00;1.23;;;1.10;;
10041;SDS011;5061;49.068;12.058;2023-03-23T15:43:26;1.50;;;1.33;;
10041;SDS011;5061;49.068;12.058;2023-03-23T15:46:55;2.93;;;1.00;;
10041;SDS011;5061;49.068;12.058;2023-03-23T15:53:51;1.73;;;1.20;;
10041;SDS011;5061;49.068;12.058;2023-03-23T15:57:13;1.87;;;1.27;;
10041;SDS011;5061;49.068;12.058;2023-03-23T16:00:34;1.47;;;1.23;;
10041;SDS011;5061;49.068;12.058;2023-03-23T16:03:58;1.30;;;1.07;;
10041;SDS011;5061;49.068;12.058;2023-03-23T16:07:21;1.23;;;1.10;;
10041;SDS011;5061;49.068;12.058;2023-03-23T16:10:43;1.37;;;1.00;;
10041;SDS011;5061;49.068;12.058;2023-03-23T16:14:03;1.07;;;0.97;;
10041;SDS011;5061;49.068;12.058;2023-03-23T16:17:24;1.00;;;0.80;;
10041;SDS011;5061;49.068;12.058;2023-03-23T16:20:45;1.67;;;1.47;;
10041;SDS011;5061;49.068;12.058;2023-03-23T16:24:07;18.57;;;12.30;;
10041;SDS011;5061;49.068;12.058;2023-03-23T16:27:29;6.10;;;4.80;;
10041;SDS011;5061;49.068;12.058;2023-03-23T16:30:50;3.73;;;2.90;;
10041;SDS011;5061;49.068;12.058;2023-03-23T16:34:10;2.37;;;2.07;;
10041;SDS011;5061;49.068;12.058;2023-03-23T16:37:31;2.03;;;1.70;;
10041;SDS011;5061;49.068;12.058;2023-03-23T16:40:53;1.77;;;1.50;;
10041;SDS011;5061;49.068;12.058;2023-03-23T16:44:13;3.23;;;1.37;;
10041;SDS011;5061;49.068;12.058;2023-03-23T16:47:35;2.03;;;1.40;;
10041;SDS011;5061;49.068;12.058;2023-03-23T16:50:56;1.30;;;1.20;;
10041;SDS011;5061;49.068;12.058;2023-03-23T16:54:17;1.47;;;1.23;;
10041;SDS011;5061;49.068;12.058;2023-03-23T16:57:38;2.07;;;1.40;;
10041;SDS011;5061;49.068;12.058;2023-03-23T17:00:59;1.53;;;1.10;;
10041;SDS011;5061;49.068;12.058;2023-03-23T17:04:21;1.10;;;1.00;;
10041;SDS011;5061;49.068;12.058;2023-03-23T17:07:41;1.40;;;1.30;;
10041;SDS011;5061;49.068;12.058;2023-03-23T17:11:02;1.67;;;0.97;;
10041;SDS011;5061;49.068;12.058;2023-03-23T17:14:23;1.50;;;1.33;;
10041;SDS011;5061;49.068;12.058;2023-03-23T17:17:43;1.40;;;1.30;;
10041;SDS011;5061;49.068;12.058;2023-03-23T17:21:04;1.50;;;1.30;;
10041;SDS011;5061;49.068;12.058;2023-03-23T17:24:25;2.67;;;1.47;;
10041;SDS011;5061;49.068;12.058;2023-03-23T17:27:46;1.53;;;1.33;;
10041;SDS011;5061;49.068;12.058;2023-03-23T17:31:07;4.40;;;1.60;;
10041;SDS011;5061;49.068;12.058;2023-03-23T17:34:28;2.57;;;1.80;;
10041;SDS011;5061;49.068;12.058;2023-03-23T17:37:48;1.60;;;1.47;;
10041;SDS011;5061;49.068;12.058;2023-03-23T17:41:09;1.57;;;1.47;;
10041;SDS011;5061;49.068;12.058;2023-03-23T17:44:30;1.30;;;1.20;;
10041;SDS011;5061;49.068;12.058;2023-03-23T17:47:51;1.40;;;1.20;;
10041;SDS011;5061;49.068;12.058;2023-03-23T17:51:11;1.53;;;1.37;;
10041;SDS011;5061;49.068;12.058;2023-03-23T17:54:32;1.30;;;1.10;;
10041;SDS011;5061;49.068;12.058;2023-03-23T17:57:53;2.40;;;1.60;;
10041;SDS011;5061;49.068;12.058;2023-03-23T18:01:17;2.70;;;2.33;;
10041;SDS011;5061;49.068;12.058;2023-03-23T18:04:37;1.60;;;1.50;;
10041;SDS011;5061;49.068;12.058;2023-03-23T18:07:59;1.60;;;1.50;;
10041;SDS011;5061;49.068;12.058;2023-03-23T18:11:23;2.20;;;2.00;;
10041;SDS011;5061;49.068;12.058;2023-03-23T18:14:46;2.40;;;1.97;;
10041;SDS011;5061;49.068;12.058;2023-03-23T18:18:14;2.57;;;2.10;;
10041;SDS011;5061;49.068;12.058;2023-03-23T18:21:35;2.27;;;1.93;;
10041;SDS011;5061;49.068;12.058;2023-03-23T18:24:56;2.40;;;1.60;;
10041;SDS011;5061;49.068;12.058;2023-03-23T18:28:19;2.67;;;2.23;;
10041;SDS011;5061;49.068;12.058;2023-03-23T18:31:45;2.13;;;1.77;;
10041;SDS011;5061;49.068;12.058;2023-03-23T18:35:07;2.60;;;2.27;;
10041;SDS011;5061;49.068;12.058;2023-03-23T18:38:29;2.17;;;1.80;;
10041;SDS011;5061;49.068;12.058;2023-03-23T18:41:50;2.50;;;1.60;;
10041;SDS011;5061;49.068;12.058;2023-03-23T18:45:11;2.67;;;2.10;;
10041;SDS011;5061;49.068;12.058;2023-03-23T18:48:32;3.17;;;1.80;;
10041;SDS011;5061;49.068;12.058;2023-03-23T18:51:54;1.93;;;1.73;;
10041;SDS011;5061;49.068;12.058;2023-03-23T18:55:15;1.60;;;1.50;;
10041;SDS011;5061;49.068;12.058;2023-03-23T18:58:36;1.90;;;1.70;;
10041;SDS011;5061;49.068;12.058;2023-03-23T19:01:58;1.90;;;1.50;;
10041;SDS011;5061;49.068;12.058;2023-03-23T19:05:18;3.83;;;1.50;;
10041;SDS011;5061;49.068;12.058;2023-03-23T19:08:39;1.93;;;1.73;;
10041;SDS011;5061;49.068;12.058;2023-03-23T19:12:00;2.30;;;1.63;;
10041;SDS011;5061;49.068;12.058;2023-03-23T19:15:21;3.10;;;2.00;;
10041;SDS011;5061;49.068;12.058;2023-03-23T19:18:43;2.53;;;2.33;;
10041;SDS011;5061;49.068;12.058;2023-03-23T19:22:04;3.20;;;2.07;;
10041;SDS011;5061;49.068;12.058;2023-03-23T19:25:26;3.93;;;1.90;;
10041;SDS011;5061;49.068;12.058;2023-03-23T19:28:47;2.90;;;1.87;;
10041;SDS011;5061;49.068;12.058;2023-03-23T19:32:08;2.27;;;1.90;;
10041;SDS011;5061;49.068;12.058;2023-03-23T19:35:29;2.47;;;2.17;;
10041;SDS011;5061;49.068;12.058;2023-03-23T19:38:51;2.93;;;2.20;;
10041;SDS011;5061;49.068;12.058;2023-03-23T19:42:13;4.10;;;2.77;;
10041;SDS011;5061;49.068;12.058;2023-03-23T19:45:37;3.60;;;2.37;;
10041;SDS011;5061;49.068;12.058;2023-03-23T19:49:03;2.30;;;2.10;;
10041;SDS011;5061;49.068;12.058;2023-03-23T19:52:28;2.60;;;2.00;;
10041;SDS011;5061;49.068;12.058;2023-03-23T19:55:54;7.57;;;2.60;;
10041;SDS011;5061;49.068;12.058;2023-03-23T19:59:15;2.90;;;2.23;;
10041;SDS011;5061;49.068;12.058;2023-03-23T20:02:36;3.70;;;2.13;;
10041;SDS011;5061;49.068;12.058;2023-03-23T20:06:00;2.40;;;1.97;;
10041;SDS011;5061;49.068;12.058;2023-03-23T20:09:26;2.23;;;2.00;;
10041;SDS011;5061;49.068;12.058;2023-03-23T20:12:50;5.37;;;2.27;;
10041;SDS011;5061;49.068;12.058;2023-03-23T20:16:16;5.80;;;2.70;;
10041;SDS011;5061;49.068;12.058;2023-03-23T20:19:40;2.80;;;2.20;;
10041;SDS011;5061;49.068;12.058;2023-03-23T20:23:01;2.67;;;2.10;;
10041;SDS011;5061;49.068;12.058;2023-03-23T20:26:29;3.20;;;2.07;;
10041;SDS011;5061;49.068;12.058;2023-03-23T20:29:53;2.90;;;2.33;;
10041;SDS011;5061;49.068;12.058;2023-03-23T20:33:13;3.13;;;2.10;;
10041;SDS011;5061;49.068;12.058;2023-03-23T20:36:38;2.77;;;1.90;;
10041;SDS011;5061;49.068;12.058;2023-03-23T20:40:01;2.27;;;2.03;;
10041;SDS011;5061;49.068;12.058;2023-03-23T20:43:27;4.03;;;2.47;;
10041;SDS011;5061;49.068;12.058;2023-03-23T20:46:49;2.93;;;2.30;;
10041;SDS011;5061;49.068;12.058;2023-03-23T20:50:21;3.37;;;2.23;;
10041;SDS011;5061;49.068;12.058;2023-03-23T20:53:42;3.63;;;2.03;;
10041;SDS011;5061;49.068;12.058;2023-03-23T20:57:03;2.63;;;2.30;;
10041;SDS011;5061;49.068;12.058;2023-03-23T21:00:24;2.90;;;2.37;;
10041;SDS011;5061;49.068;12.058;2023-03-23T21:03:48;2.10;;;1.90;;
10041;SDS011;5061;49.068;12.058;2023-03-23T21:07:11;2.50;;;2.10;;
10041;SDS011;5061;49.068;12.058;2023-03-23T21:10:32;2.60;;;2.20;;
10041;SDS011;5061;49.068;12.058;2023-03-23T21:13:53;2.40;;;2.00;;
10041;SDS011;5061;49.068;12.058;2023-03-23T21:17:14;2.23;;;1.80;;
10041;SDS011;5061;49.068;12.058;2023-03-23T21:20:35;1.83;;;1.63;;
10041;SDS011;5061;49.068;12.058;2023-03-23T21:24:00;3.77;;;2.30;;
10041;SDS011;5061;49.068;12.058;2023-03-23T21:27:21;2.53;;;2.33;;
10041;SDS011;5061;49.068;12.058;2023-03-23T21:30:43;2.37;;;2.07;;
10041;SDS011;5061;49.068;12.058;2023-03-23T21:34:04;2.00;;;1.77;;
10041;SDS011;5061;49.068;12.058;2023-03-23T21:37:25;2.07;;;1.83;;
10041;SDS011;5061;49.068;12.058;2023-03-23T21:40:48;2.83;;;2.00;;
10041;SDS011;5061;49.068;12.058;2023-03-23T21:44:17;3.83;;;1.90;;
10041;SDS011;5061;49.068;12.058;2023-03-23T21:47:38;3.70;;;2.30;;
10041;SDS011;5061;49.068;12.058;2023-03-23T21:51:10;2.00;;;1.80;;
10041;SDS011;5061;49.068;12.058;2023-03-23T21:54:33;3.13;;;2.13;;
10041;SDS011;5061;49.068;12.058;2023-03-23T21:57:54;2.40;;;2.20;;
10041;SDS011;5061;49.068;12.058;2023-03-23T22:01:15;2.23;;;1.87;;